sensor_id;sensor_type;location;lat;lon;timestamp;pressure;altitude;pressure_sealevel;temperature;humidity
6413;BME280;3239;48.714;9.472;2023-06-10T00:01:13;97794.44;;;16.87;100.00
6413;BME280;3239;48.714;9.472;2023-06-10T00:03:39;97798.75;;;16.81;100.00
6413;BME280;3239;48.714;9.472;2023-06-10T00:06:06;97798.75;;;16.81;100.00
6413;BME280;3239;48.714;9.472;2023-06-10T00:08:32;97800.75;;;16.71;100.00
6413;BME280;3239;48.714;9.472;2023-06-10T00:10:58;97800.44;;;16.67;100.00
6413;BME280;3239;48.714;9.472;2023-06-10T00:13:24;97805.97;;;16.67;100.00
6413;BME280;3239;48.714;9.472;2023-06-10T00:15:50;97806.56;;;16.65;100.00
6413;BME280;3239;48.714;9.472;2023-06-10T00:18:16;97807.31;;;16.75;100.00
6413;BME280;3239;48.714;9.472;2023-06-10T00:20:43;97802.47;;;16.66;100.00
6413;BME280;3239;48.714;9.472;2023-06-10T00:23:08;97798.53;;;16.69;100.00
6413;BME280;3239;48.714;9.472;2023-06-10T00:25:35;97807.53;;;16.60;100.00
6413;BME280;3239;48.714;9.472;2023-06-10T00:28:01;97807.72;;;16.45;100.00
6413;BME280;3239;48.714;9.472;2023-06-10T00:30:26;97806.00;;;16.50;100.00
6413;BME280;3239;48.714;9.472;2023-06-10T00:32:52;97801.69;;;16.56;100.00
6413;BME280;3239;48.714;9.472;2023-06-10T00:35:18;97803.50;;;16.44;100.00
6413;BME280;3239;48.714;9.472;2023-06-10T00:37:44;97805.94;;;16.40;100.00
6413;BME280;3239;48.714;9.472;2023-06-10T00:40:10;97809.09;;;16.37;100.00
6413;BME280;3239;48.714;9.472;2023-06-10T00:42:36;97803.75;;;16.39;100.00
6413;BME280;3239;48.714;9.472;2023-06-10T00:45:02;97809.91;;;16.30;100.00
6413;BME280;3239;48.714;9.472;2023-06-10T00:47:28;97809.66;;;16.35;100.00
6413;BME280;3239;48.714;9.472;2023-06-10T00:49:55;97811.28;;;16.38;100.00
6413;BME280;3239;48.714;9.472;2023-06-10T00:52:22;97812.53;;;16.28;100.00
6413;BME280;3239;48.714;9.472;2023-06-10T00:54:50;97803.56;;;16.20;100.00
6413;BME280;3239;48.714;9.472;2023-06-10T00:57:16;97805.06;;;16.21;100.00
6413;BME280;3239;48.714;9.472;2023-06-10T00:59:46;97799.84;;;16.25;100.00
6413;BME280;3239;48.714;9.472;2023-06-10T01:02:13;97800.91;;;16.29;100.00
6413;BME280;3239;48.714;9.472;2023-06-10T01:04:38;97799.53;;;16.21;100.00
6413;BME280;3239;48.714;9.472;2023-06-10T01:07:30;97802.31;;;16.21;100.00
6413;BME280;3239;48.714;9.472;2023-06-10T01:10:18;97801.22;;;16.16;100.00
6413;BME280;3239;48.714;9.472;2023-06-10T01:13:01;97806.66;;;16.24;100.00
6413;BME280;3239;48.714;9.472;2023-06-10T01:15:34;97806.03;;;16.16;100.00
6413;BME280;3239;48.714;9.472;2023-06-10T01:18:06;97805.72;;;16.12;100.00
6413;BME280;3239;48.714;9.472;2023-06-10T01:20:34;97810.59;;;16.21;100.00
6413;BME280;3239;48.714;9.472;2023-06-10T01:23:02;97812.47;;;16.18;100.00
6413;BME280;3239;48.714;9.472;2023-06-10T01:25:29;97812.53;;;16.11;100.00
6413;BME280;3239;48.714;9.472;2023-06-10T01:28:25;97814.09;;;16.04;100.00
6413;BME280;3239;48.714;9.472;2023-06-10T01:33:31;97815.72;;;16.07;100.00
6413;BME280;3239;48.714;9.472;2023-06-10T01:35:59;97814.81;;;16.05;100.00
6413;BME280;3239;48.714;9.472;2023-06-10T01:38:30;97818.22;;;15.96;100.00
6413;BME280;3239;48.714;9.472;2023-06-10T01:40:58;97827.66;;;15.93;100.00
6413;BME280;3239;48.714;9.472;2023-06-10T01:43:24;97828.72;;;15.97;100.00
6413;BME280;3239;48.714;9.472;2023-06-10T01:45:50;97838.53;;;15.91;100.00
6413;BME280;3239;48.714;9.472;2023-06-10T01:48:16;97823.50;;;15.84;100.00
6413;BME280;3239;48.714;9.472;2023-06-10T01:50:41;97835.44;;;15.87;100.00
6413;BME280;3239;48.714;9.472;2023-06-10T01:53:09;97832.34;;;15.83;100.00
6413;BME280;3239;48.714;9.472;2023-06-10T01:55:35;97836.25;;;15.80;100.00
6413;BME280;3239;48.714;9.472;2023-06-10T01:58:00;97840.47;;;15.81;100.00
6413;BME280;3239;48.714;9.472;2023-06-10T02:00:26;97836.66;;;15.76;100.00
6413;BME280;3239;48.714;9.472;2023-06-10T02:02:52;97839.25;;;15.74;100.00
6413;BME280;3239;48.714;9.472;2023-06-10T02:05:18;97849.91;;;15.78;100.00
6413;BME280;3239;48.714;9.472;2023-06-10T02:07:44;97849.81;;;15.68;100.00
6413;BME280;3239;48.714;9.472;2023-06-10T02:10:10;97857.09;;;15.56;100.00
6413;BME280;3239;48.714;9.472;2023-06-10T02:12:35;97855.78;;;15.57;100.00
6413;BME280;3239;48.714;9.472;2023-06-10T02:15:01;97853.66;;;15.48;100.00
6413;BME280;3239;48.714;9.472;2023-06-10T02:17:27;97858.81;;;15.52;100.00
6413;BME280;3239;48.714;9.472;2023-06-10T02:19:53;97861.94;;;15.48;100.00
6413;BME280;3239;48.714;9.472;2023-06-10T02:22:23;97869.72;;;15.42;100.00
6413;BME280;3239;48.714;9.472;2023-06-10T02:24:49;97863.63;;;15.44;100.00
6413;BME280;3239;48.714;9.472;2023-06-10T02:27:18;97864.69;;;15.48;100.00
6413;BME280;3239;48.714;9.472;2023-06-10T02:29:44;97869.66;;;15.50;100.00
6413;BME280;3239;48.714;9.472;2023-06-10T02:32:10;97869.84;;;15.52;100.00
6413;BME280;3239;48.714;9.472;2023-06-10T02:34:35;97870.88;;;15.39;100.00
6413;BME280;3239;48.714;9.472;2023-06-10T02:37:02;97881.16;;;15.39;100.00
6413;BME280;3239;48.714;9.472;2023-06-10T02:39:28;97882.06;;;15.41;100.00
6413;BME280;3239;48.714;9.472;2023-06-10T02:41:54;97886.84;;;15.41;100.00
6413;BME280;3239;48.714;9.472;2023-06-10T02:44:19;97884.47;;;15.37;100.00
6413;BME280;3239;48.714;9.472;2023-06-10T02:46:46;97891.84;;;15.35;100.00
6413;BME280;3239;48.714;9.472;2023-06-10T02:49:12;97895.88;;;15.41;100.00
6413;BME280;3239;48.714;9.472;2023-06-10T02:51:38;97892.53;;;15.43;100.00
6413;BME280;3239;48.714;9.472;2023-06-10T02:54:04;97888.53;;;15.36;100.00
6413;BME280;3239;48.714;9.472;2023-06-10T02:56:30;97897.97;;;15.33;100.00
6413;BME280;3239;48.714;9.472;2023-06-10T02:58:57;97900.72;;;15.33;100.00
6413;BME280;3239;48.714;9.472;2023-06-10T03:01:23;97900.00;;;15.25;100.00
6413;BME280;3239;48.714;9.472;2023-06-10T03:03:49;97902.59;;;15.23;100.00
6413;BME280;3239;48.714;9.472;2023-06-10T03:06:16;97912.72;;;15.21;100.00
6413;BME280;3239;48.714;9.472;2023-06-10T03:08:42;97916.03;;;15.19;100.00
6413;BME280;3239;48.714;9.472;2023-06-10T03:11:08;97905.56;;;15.18;100.00
6413;BME280;3239;48.714;9.472;2023-06-10T03:13:34;97915.31;;;15.19;100.00
6413;BME280;3239;48.714;9.472;2023-06-10T03:16:00;97920.25;;;15.20;100.00
6413;BME280;3239;48.714;9.472;2023-06-10T03:18:27;97922.19;;;15.03;100.00
6413;BME280;3239;48.714;9.472;2023-06-10T03:20:56;97933.84;;;14.94;100.00
6413;BME280;3239;48.714;9.472;2023-06-10T03:23:23;97934.75;;;14.96;100.00
6413;BME280;3239;48.714;9.472;2023-06-10T03:25:49;97947.81;;;14.96;100.00
6413;BME280;3239;48.714;9.472;2023-06-10T03:28:15;97950.34;;;15.01;100.00
6413;BME280;3239;48.714;9.472;2023-06-10T03:30:41;97946.63;;;15.06;100.00
6413;BME280;3239;48.714;9.472;2023-06-10T03:33:06;97945.91;;;15.06;100.00
6413;BME280;3239;48.714;9.472;2023-06-10T03:35:32;97956.56;;;15.09;100.00
6413;BME280;3239;48.714;9.472;2023-06-10T03:37:58;97949.03;;;15.10;100.00
6413;BME280;3239;48.714;9.472;2023-06-10T03:40:24;97953.41;;;15.13;100.00
6413;BME280;3239;48.714;9.472;2023-06-10T03:42:50;97952.53;;;15.03;100.00
6413;BME280;3239;48.714;9.472;2023-06-10T03:45:16;97953.81;;;15.09;100.00
6413;BME280;3239;48.714;9.472;2023-06-10T03:47:41;97965.94;;;15.06;100.00
6413;BME280;3239;48.714;9.472;2023-06-10T03:50:09;97971.81;;;15.10;100.00
6413;BME280;3239;48.714;9.472;2023-06-10T03:52:37;97965.75;;;15.12;100.00
6413;BME280;3239;48.714;9.472;2023-06-10T03:55:03;97964.34;;;14.96;100.00
6413;BME280;3239;48.714;9.472;2023-06-10T03:57:29;97969.47;;;15.07;100.00
6413;BME280;3239;48.714;9.472;2023-06-10T03:59:55;97968.72;;;15.06;100.00
6413;BME280;3239;48.714;9.472;2023-06-10T04:02:22;97969.84;;;15.03;100.00
6413;BME280;3239;48.714;9.472;2023-06-10T04:04:48;97971.81;;;15.10;100.00
6413;BME280;3239;48.714;9.472;2023-06-10T04:07:14;97977.69;;;15.14;100.00
6413;BME280;3239;48.714;9.472;2023-06-10T04:09:40;97972.72;;;15.13;100.00
6413;BME280;3239;48.714;9.472;2023-06-10T04:12:06;97977.69;;;15.14;100.00
6413;BME280;3239;48.714;9.472;2023-06-10T04:14:34;97985.81;;;15.12;100.00
6413;BME280;3239;48.714;9.472;2023-06-10T04:17:04;97984.69;;;15.15;100.00
6413;BME280;3239;48.714;9.472;2023-06-10T04:19:33;97983.06;;;15.12;100.00
6413;BME280;3239;48.714;9.472;2023-06-10T04:22:01;97988.00;;;15.14;100.00
6413;BME280;3239;48.714;9.472;2023-06-10T04:24:27;97995.00;;;15.15;100.00
6413;BME280;3239;48.714;9.472;2023-06-10T04:26:53;97995.34;;;15.19;100.00
6413;BME280;3239;48.714;9.472;2023-06-10T04:29:19;98000.16;;;15.11;100.00
6413;BME280;3239;48.714;9.472;2023-06-10T04:31:44;97997.56;;;15.13;100.00
6413;BME280;3239;48.714;9.472;2023-06-10T04:34:12;97999.03;;;15.14;100.00
6413;BME280;3239;48.714;9.472;2023-06-10T04:36:38;97999.19;;;15.23;100.00
6413;BME280;3239;48.714;9.472;2023-06-10T04:39:04;98000.25;;;15.28;100.00
6413;BME280;3239;48.714;9.472;2023-06-10T04:41:31;98007.06;;;15.34;100.00
6413;BME280;3239;48.714;9.472;2023-06-10T04:43:57;98003.00;;;15.35;100.00
6413;BME280;3239;48.714;9.472;2023-06-10T04:46:23;98015.13;;;15.40;100.00
6413;BME280;3239;48.714;9.472;2023-06-10T04:48:49;98007.03;;;15.42;100.00
6413;BME280;3239;48.714;9.472;2023-06-10T04:51:16;98009.75;;;15.49;100.00
6413;BME280;3239;48.714;9.472;2023-06-10T04:53:42;98008.22;;;15.56;100.00
6413;BME280;3239;48.714;9.472;2023-06-10T04:56:08;98002.50;;;15.61;100.00
6413;BME280;3239;48.714;9.472;2023-06-10T04:58:34;97996.19;;;15.68;100.00
6413;BME280;3239;48.714;9.472;2023-06-10T05:00:59;97993.03;;;15.72;100.00
6413;BME280;3239;48.714;9.472;2023-06-10T05:03:26;98001.31;;;15.72;100.00
6413;BME280;3239;48.714;9.472;2023-06-10T05:05:52;98002.00;;;15.80;100.00
6413;BME280;3239;48.714;9.472;2023-06-10T05:08:18;97998.78;;;15.91;100.00
6413;BME280;3239;48.714;9.472;2023-06-10T05:10:44;97997.44;;;15.99;100.00
6413;BME280;3239;48.714;9.472;2023-06-10T05:13:09;97999.78;;;16.03;100.00
6413;BME280;3239;48.714;9.472;2023-06-10T05:15:35;98001.44;;;16.06;100.00
6413;BME280;3239;48.714;9.472;2023-06-10T05:18:02;97995.25;;;16.15;100.00
6413;BME280;3239;48.714;9.472;2023-06-10T05:20:28;97994.72;;;16.16;100.00
6413;BME280;3239;48.714;9.472;2023-06-10T05:22:54;97993.59;;;16.19;100.00
6413;BME280;3239;48.714;9.472;2023-06-10T05:25:20;97992.31;;;16.37;100.00
6413;BME280;3239;48.714;9.472;2023-06-10T05:27:45;97984.16;;;16.47;100.00
6413;BME280;3239;48.714;9.472;2023-06-10T05:30:11;97983.81;;;16.60;100.00
6413;BME280;3239;48.714;9.472;2023-06-10T05:32:37;97983.19;;;16.69;100.00
6413;BME280;3239;48.714;9.472;2023-06-10T05:35:03;97984.38;;;16.75;100.00
6413;BME280;3239;48.714;9.472;2023-06-10T05:37:30;97983.56;;;16.82;100.00
6413;BME280;3239;48.714;9.472;2023-06-10T05:39:56;97980.53;;;16.88;100.00
6413;BME280;3239;48.714;9.472;2023-06-10T05:42:21;97971.16;;;17.00;100.00
6413;BME280;3239;48.714;9.472;2023-06-10T05:44:47;97965.59;;;17.17;100.00
6413;BME280;3239;48.714;9.472;2023-06-10T05:47:13;97975.59;;;17.30;100.00
6413;BME280;3239;48.714;9.472;2023-06-10T05:49:39;97966.06;;;17.40;100.00
6413;BME280;3239;48.714;9.472;2023-06-10T05:52:05;97963.53;;;17.61;100.00
6413;BME280;3239;48.714;9.472;2023-06-10T05:54:31;97966.66;;;17.75;100.00
6413;BME280;3239;48.714;9.472;2023-06-10T05:56:57;97961.28;;;17.77;100.00
6413;BME280;3239;48.714;9.472;2023-06-10T05:59:22;97966.88;;;17.96;100.00
6413;BME280;3239;48.714;9.472;2023-06-10T06:01:49;97967.31;;;18.38;100.00
6413;BME280;3239;48.714;9.472;2023-06-10T06:04:16;97952.44;;;18.43;100.00
6413;BME280;3239;48.714;9.472;2023-06-10T06:06:42;97948.91;;;18.80;100.00
6413;BME280;3239;48.714;9.472;2023-06-10T06:09:08;97938.81;;;18.94;100.00
6413;BME280;3239;48.714;9.472;2023-06-10T06:11:34;97931.19;;;19.33;100.00
6413;BME280;3239;48.714;9.472;2023-06-10T06:14:00;97912.44;;;19.43;100.00
6413;BME280;3239;48.714;9.472;2023-06-10T06:16:26;97910.84;;;19.70;100.00
6413;BME280;3239;48.714;9.472;2023-06-10T06:18:52;97900.72;;;20.05;100.00
6413;BME280;3239;48.714;9.472;2023-06-10T06:21:17;97909.59;;;20.34;100.00
6413;BME280;3239;48.714;9.472;2023-06-10T06:23:43;97899.28;;;20.79;100.00
6413;BME280;3239;48.714;9.472;2023-06-10T06:26:09;97888.31;;;20.92;100.00
6413;BME280;3239;48.714;9.472;2023-06-10T06:28:35;97894.97;;;21.54;100.00
6413;BME280;3239;48.714;9.472;2023-06-10T06:31:00;97891.09;;;22.05;100.00
6413;BME280;3239;48.714;9.472;2023-06-10T06:33:26;97885.41;;;23.01;100.00
6413;BME280;3239;48.714;9.472;2023-06-10T06:35:52;97876.44;;;22.78;100.00
6413;BME280;3239;48.714;9.472;2023-06-10T06:38:18;97881.06;;;23.23;100.00
6413;BME280;3239;48.714;9.472;2023-06-10T06:40:43;97882.66;;;23.15;100.00
6413;BME280;3239;48.714;9.472;2023-06-10T06:43:09;97883.81;;;23.48;100.00
6413;BME280;3239;48.714;9.472;2023-06-10T06:45:35;97872.63;;;23.75;100.00
6413;BME280;3239;48.714;9.472;2023-06-10T06:48:01;97874.50;;;24.11;100.00
6413;BME280;3239;48.714;9.472;2023-06-10T06:50:26;97867.09;;;24.45;100.00
6413;BME280;3239;48.714;9.472;2023-06-10T06:52:52;97868.09;;;24.65;100.00
6413;BME280;3239;48.714;9.472;2023-06-10T06:55:18;97874.84;;;24.89;100.00
6413;BME280;3239;48.714;9.472;2023-06-10T06:57:47;97867.63;;;24.41;100.00
6413;BME280;3239;48.714;9.472;2023-06-10T07:00:13;97877.94;;;24.10;100.00
6413;BME280;3239;48.714;9.472;2023-06-10T07:02:39;97870.50;;;24.43;100.00
6413;BME280;3239;48.714;9.472;2023-06-10T07:08:36;97874.75;;;24.58;100.00
6413;BME280;3239;48.714;9.472;2023-06-10T07:11:02;97868.47;;;24.73;100.00
6413;BME280;3239;48.714;9.472;2023-06-10T07:13:27;97871.06;;;24.69;100.00
6413;BME280;3239;48.714;9.472;2023-06-10T07:15:53;97879.94;;;24.50;100.00
6413;BME280;3239;48.714;9.472;2023-06-10T07:18:19;97881.59;;;25.13;100.00
6413;BME280;3239;48.714;9.472;2023-06-10T07:20:45;97878.00;;;25.41;100.00
6413;BME280;3239;48.714;9.472;2023-06-10T07:23:10;97875.88;;;24.53;100.00
6413;BME280;3239;48.714;9.472;2023-06-10T07:25:37;97868.94;;;23.98;100.00
6413;BME280;3239;48.714;9.472;2023-06-10T07:28:03;97876.88;;;23.76;100.00
6413;BME280;3239;48.714;9.472;2023-06-10T07:30:28;97873.22;;;24.41;100.00
6413;BME280;3239;48.714;9.472;2023-06-10T07:32:54;97883.72;;;24.56;100.00
6413;BME280;3239;48.714;9.472;2023-06-10T07:35:21;97876.13;;;25.17;100.00
6413;BME280;3239;48.714;9.472;2023-06-10T07:37:47;97869.63;;;25.12;100.00
6413;BME280;3239;48.714;9.472;2023-06-10T07:40:13;97871.19;;;25.46;100.00
6413;BME280;3239;48.714;9.472;2023-06-10T07:42:38;97871.47;;;25.99;100.00
6413;BME280;3239;48.714;9.472;2023-06-10T07:45:05;97865.47;;;24.98;100.00
6413;BME280;3239;48.714;9.472;2023-06-10T07:47:34;97870.03;;;25.51;100.00
6413;BME280;3239;48.714;9.472;2023-06-10T07:50:00;97875.66;;;25.67;100.00
6413;BME280;3239;48.714;9.472;2023-06-10T07:52:25;97863.66;;;26.13;100.00
6413;BME280;3239;48.714;9.472;2023-06-10T07:54:51;97867.13;;;25.65;100.00
6413;BME280;3239;48.714;9.472;2023-06-10T07:57:18;97861.34;;;26.25;100.00
6413;BME280;3239;48.714;9.472;2023-06-10T07:59:44;97868.91;;;26.05;100.00
6413;BME280;3239;48.714;9.472;2023-06-10T08:02:10;97863.03;;;25.83;100.00
6413;BME280;3239;48.714;9.472;2023-06-10T08:04:36;97864.06;;;26.56;100.00
6413;BME280;3239;48.714;9.472;2023-06-10T08:07:22;97865.19;;;26.33;100.00
6413;BME280;3239;48.714;9.472;2023-06-10T08:09:48;97862.06;;;25.77;100.00
6413;BME280;3239;48.714;9.472;2023-06-10T08:12:14;97858.56;;;26.09;100.00
6413;BME280;3239;48.714;9.472;2023-06-10T08:14:39;97859.25;;;26.43;100.00
6413;BME280;3239;48.714;9.472;2023-06-10T08:17:05;97860.56;;;26.57;100.00
6413;BME280;3239;48.714;9.472;2023-06-10T08:19:32;97853.91;;;25.83;100.00
6413;BME280;3239;48.714;9.472;2023-06-10T08:21:58;97858.69;;;25.96;100.00
6413;BME280;3239;48.714;9.472;2023-06-10T08:24:23;97855.97;;;26.31;100.00
6413;BME280;3239;48.714;9.472;2023-06-10T08:26:49;97840.56;;;26.32;100.00
6413;BME280;3239;48.714;9.472;2023-06-10T08:29:15;97851.50;;;26.59;100.00
6413;BME280;3239;48.714;9.472;2023-06-10T08:31:44;97854.69;;;27.58;100.00
6413;BME280;3239;48.714;9.472;2023-06-10T08:34:10;97850.00;;;27.84;100.00
6413;BME280;3239;48.714;9.472;2023-06-10T08:36:36;97850.31;;;27.75;100.00
6413;BME280;3239;48.714;9.472;2023-06-10T08:39:02;97849.88;;;27.06;100.00
6413;BME280;3239;48.714;9.472;2023-06-10T08:41:28;97854.97;;;26.75;100.00
6413;BME280;3239;48.714;9.472;2023-06-10T08:44:12;97850.84;;;26.43;100.00
6413;BME280;3239;48.714;9.472;2023-06-10T08:46:39;97865.38;;;27.25;100.00
6413;BME280;3239;48.714;9.472;2023-06-10T08:49:10;97846.25;;;26.51;100.00
6413;BME280;3239;48.714;9.472;2023-06-10T08:51:41;97848.94;;;27.37;100.00
6413;BME280;3239;48.714;9.472;2023-06-10T08:54:27;97848.84;;;27.72;100.00
6413;BME280;3239;48.714;9.472;2023-06-10T08:56:55;97838.28;;;27.53;100.00
6413;BME280;3239;48.714;9.472;2023-06-10T08:59:23;97851.56;;;28.09;100.00
6413;BME280;3239;48.714;9.472;2023-06-10T09:01:51;97835.22;;;28.46;100.00
6413;BME280;3239;48.714;9.472;2023-06-10T09:04:18;97840.72;;;28.64;100.00
6413;BME280;3239;48.714;9.472;2023-06-10T09:06:45;97835.81;;;29.09;99.18
6413;BME280;3239;48.714;9.472;2023-06-10T09:09:14;97835.66;;;29.03;99.61
6413;BME280;3239;48.714;9.472;2023-06-10T09:11:42;97832.16;;;29.05;99.20
6413;BME280;3239;48.714;9.472;2023-06-10T09:14:08;97839.00;;;27.73;100.00
6413;BME280;3239;48.714;9.472;2023-06-10T09:16:34;97827.38;;;28.64;99.96
6413;BME280;3239;48.714;9.472;2023-06-10T09:19:01;97830.66;;;29.02;96.55
6413;BME280;3239;48.714;9.472;2023-06-10T09:21:36;97833.81;;;28.90;96.91
6413;BME280;3239;48.714;9.472;2023-06-10T09:24:02;97836.41;;;29.29;98.80
6413;BME280;3239;48.714;9.472;2023-06-10T09:26:28;97827.78;;;29.00;100.00
6413;BME280;3239;48.714;9.472;2023-06-10T09:29:06;97835.34;;;30.17;82.79
6413;BME280;3239;48.714;9.472;2023-06-10T09:31:36;97817.16;;;30.24;77.24
6413;BME280;3239;48.714;9.472;2023-06-10T09:34:13;97827.19;;;29.27;89.63
6413;BME280;3239;48.714;9.472;2023-06-10T09:36:39;97824.09;;;30.19;82.17
6413;BME280;3239;48.714;9.472;2023-06-10T09:39:14;97823.84;;;28.87;86.46
6413;BME280;3239;48.714;9.472;2023-06-10T09:41:45;97815.25;;;29.05;84.92
6413;BME280;3239;48.714;9.472;2023-06-10T09:44:19;97815.47;;;29.13;86.11
6413;BME280;3239;48.714;9.472;2023-06-10T09:46:50;97819.69;;;28.45;93.05
6413;BME280;3239;48.714;9.472;2023-06-10T09:49:18;97821.03;;;28.66;91.54
6413;BME280;3239;48.714;9.472;2023-06-10T09:51:52;97821.03;;;28.42;95.38
6413;BME280;3239;48.714;9.472;2023-06-10T09:54:19;97816.38;;;28.31;98.52
6413;BME280;3239;48.714;9.472;2023-06-10T09:56:50;97815.75;;;29.23;94.58
6413;BME280;3239;48.714;9.472;2023-06-10T09:59:30;97811.44;;;29.94;82.85
6413;BME280;3239;48.714;9.472;2023-06-10T10:01:57;97814.66;;;29.57;79.81
6413;BME280;3239;48.714;9.472;2023-06-10T10:04:26;97812.22;;;29.71;69.69
6413;BME280;3239;48.714;9.472;2023-06-10T10:06:54;97808.31;;;30.37;64.26
6413;BME280;3239;48.714;9.472;2023-06-10T10:09:19;97805.72;;;29.41;73.62
6413;BME280;3239;48.714;9.472;2023-06-10T10:11:46;97808.41;;;28.67;78.67
6413;BME280;3239;48.714;9.472;2023-06-10T10:14:14;97808.50;;;29.16;73.77
6413;BME280;3239;48.714;9.472;2023-06-10T10:16:42;97809.94;;;29.91;71.17
6413;BME280;3239;48.714;9.472;2023-06-10T10:19:16;97805.97;;;28.79;85.90
6413;BME280;3239;48.714;9.472;2023-06-10T10:21:53;97816.47;;;27.92;97.16
6413;BME280;3239;48.714;9.472;2023-06-10T10:24:21;97800.81;;;29.67;81.78
6413;BME280;3239;48.714;9.472;2023-06-10T10:26:50;97800.63;;;29.59;81.24
6413;BME280;3239;48.714;9.472;2023-06-10T10:29:20;97791.03;;;29.21;73.44
6413;BME280;3239;48.714;9.472;2023-06-10T10:31:51;97788.78;;;28.71;83.60
6413;BME280;3239;48.714;9.472;2023-06-10T10:34:33;97791.56;;;29.90;68.92
6413;BME280;3239;48.714;9.472;2023-06-10T10:37:01;97793.44;;;30.96;60.34
6413;BME280;3239;48.714;9.472;2023-06-10T10:39:27;97791.50;;;31.04;56.52
6413;BME280;3239;48.714;9.472;2023-06-10T10:41:54;97792.41;;;29.20;69.72
6413;BME280;3239;48.714;9.472;2023-06-10T10:44:21;97797.44;;;29.24;69.61
6413;BME280;3239;48.714;9.472;2023-06-10T10:46:51;97793.53;;;30.68;62.74
6413;BME280;3239;48.714;9.472;2023-06-10T10:49:18;97784.78;;;30.88;53.10
6413;BME280;3239;48.714;9.472;2023-06-10T10:54:35;97784.63;;;30.23;57.10
6413;BME280;3239;48.714;9.472;2023-06-10T10:57:19;97785.47;;;30.57;56.17
6413;BME280;3239;48.714;9.472;2023-06-10T11:02:37;97783.00;;;29.61;61.62
6413;BME280;3239;48.714;9.472;2023-06-10T11:05:06;97779.06;;;29.72;63.08
6413;BME280;3239;48.714;9.472;2023-06-10T11:07:35;97762.94;;;28.78;66.82
6413;BME280;3239;48.714;9.472;2023-06-10T11:10:11;97775.66;;;28.56;74.35
6413;BME280;3239;48.714;9.472;2023-06-10T11:15:21;97777.97;;;28.40;84.16
6413;BME280;3239;48.714;9.472;2023-06-10T11:31:22;97768.09;;;28.19;85.80
6413;BME280;3239;48.714;9.472;2023-06-10T11:33:53;97785.75;;;28.41;89.02
6413;BME280;3239;48.714;9.472;2023-06-10T11:36:19;97773.88;;;28.23;88.19
6413;BME280;3239;48.714;9.472;2023-06-10T11:38:45;97773.72;;;28.19;88.64
6413;BME280;3239;48.714;9.472;2023-06-10T11:41:11;97758.72;;;28.13;89.95
6413;BME280;3239;48.714;9.472;2023-06-10T11:43:44;97776.50;;;27.57;88.24
6413;BME280;3239;48.714;9.472;2023-06-10T11:46:14;97754.28;;;28.06;89.34
6413;BME280;3239;48.714;9.472;2023-06-10T11:48:53;97761.69;;;28.17;91.58
6413;BME280;3239;48.714;9.472;2023-06-10T11:51:19;97755.72;;;28.07;86.15
6413;BME280;3239;48.714;9.472;2023-06-10T11:53:47;97757.56;;;28.20;80.04
6413;BME280;3239;48.714;9.472;2023-06-10T11:56:19;97756.94;;;28.66;84.37
6413;BME280;3239;48.714;9.472;2023-06-10T11:58:45;97751.63;;;28.55;82.20
6413;BME280;3239;48.714;9.472;2023-06-10T12:01:11;97751.53;;;28.51;84.58
6413;BME280;3239;48.714;9.472;2023-06-10T12:06:10;97750.22;;;29.01;76.82
6413;BME280;3239;48.714;9.472;2023-06-10T12:08:42;97744.03;;;28.59;75.12
6413;BME280;3239;48.714;9.472;2023-06-10T12:11:08;97748.00;;;28.74;74.38
6413;BME280;3239;48.714;9.472;2023-06-10T12:13:34;97749.97;;;28.46;64.19
6413;BME280;3239;48.714;9.472;2023-06-10T12:16:09;97738.78;;;28.50;67.42
6413;BME280;3239;48.714;9.472;2023-06-10T12:18:35;97728.91;;;28.49;69.94
6413;BME280;3239;48.714;9.472;2023-06-10T12:21:01;97732.72;;;28.36;68.84
6413;BME280;3239;48.714;9.472;2023-06-10T12:23:29;97733.78;;;28.25;67.67
6413;BME280;3239;48.714;9.472;2023-06-10T12:25:55;97732.75;;;28.59;68.93
6413;BME280;3239;48.714;9.472;2023-06-10T12:28:26;97737.63;;;28.80;68.86
6413;BME280;3239;48.714;9.472;2023-06-10T12:31:06;97731.34;;;28.37;76.37
6413;BME280;3239;48.714;9.472;2023-06-10T12:33:33;97727.31;;;28.65;74.09
6413;BME280;3239;48.714;9.472;2023-06-10T12:35:59;97725.13;;;28.40;77.77
6413;BME280;3239;48.714;9.472;2023-06-10T12:38:26;97730.25;;;28.46;73.65
6413;BME280;3239;48.714;9.472;2023-06-10T12:41:02;97722.88;;;28.58;71.35
6413;BME280;3239;48.714;9.472;2023-06-10T12:43:31;97723.75;;;28.88;75.15
6413;BME280;3239;48.714;9.472;2023-06-10T12:46:08;97727.59;;;28.30;75.04
6413;BME280;3239;48.714;9.472;2023-06-10T12:48:35;97727.66;;;28.77;75.97
6413;BME280;3239;48.714;9.472;2023-06-10T12:51:01;97726.16;;;28.51;73.39
6413;BME280;3239;48.714;9.472;2023-06-10T12:53:27;97725.25;;;28.23;73.80
6413;BME280;3239;48.714;9.472;2023-06-10T12:55:53;97722.44;;;28.44;75.74
6413;BME280;3239;48.714;9.472;2023-06-10T12:58:22;97723.28;;;28.72;67.61
6413;BME280;3239;48.714;9.472;2023-06-10T13:00:49;97724.34;;;28.85;64.44
6413;BME280;3239;48.714;9.472;2023-06-10T13:03:18;97722.88;;;28.82;75.74
6413;BME280;3239;48.714;9.472;2023-06-10T13:05:43;97719.38;;;28.15;78.03
6413;BME280;3239;48.714;9.472;2023-06-10T13:08:09;97717.88;;;28.57;81.14
6413;BME280;3239;48.714;9.472;2023-06-10T13:10:38;97719.94;;;28.54;81.75
6413;BME280;3239;48.714;9.472;2023-06-10T13:13:04;97718.41;;;28.51;81.60
6413;BME280;3239;48.714;9.472;2023-06-10T13:15:32;97716.81;;;28.68;82.93
6413;BME280;3239;48.714;9.472;2023-06-10T13:18:05;97708.88;;;28.62;82.97
6413;BME280;3239;48.714;9.472;2023-06-10T13:20:31;97714.69;;;28.23;88.30
6413;BME280;3239;48.714;9.472;2023-06-10T13:22:57;97712.50;;;28.20;88.26
6413;BME280;3239;48.714;9.472;2023-06-10T13:25:22;97713.38;;;28.26;89.63
6413;BME280;3239;48.714;9.472;2023-06-10T13:27:48;97708.53;;;28.74;100.00
6413;BME280;3239;48.714;9.472;2023-06-10T13:30:14;97717.31;;;28.86;84.26
6413;BME280;3239;48.714;9.472;2023-06-10T13:32:40;97707.38;;;28.83;76.57
6413;BME280;3239;48.714;9.472;2023-06-10T13:35:06;97697.25;;;28.97;80.66
6413;BME280;3239;48.714;9.472;2023-06-10T13:37:33;97698.13;;;29.29;73.75
6413;BME280;3239;48.714;9.472;2023-06-10T13:40:00;97700.16;;;29.52;64.26
6413;BME280;3239;48.714;9.472;2023-06-10T13:42:25;97687.13;;;29.39;67.71
6413;BME280;3239;48.714;9.472;2023-06-10T13:44:52;97698.75;;;29.79;67.77
6413;BME280;3239;48.714;9.472;2023-06-10T13:47:17;97698.91;;;29.32;66.27